Time;durP1;ratioP1;P1;durP2;ratioP2;P2;SDS_P1;SDS_P2;PMS_P1;PMS_P2;Temp;Humidity;BMP_temperature;BMP_pressure;BME280_temperature;BME280_humidity;BME280_pressure;Samples;Min_cycle;Max_cycle;Signal;HPM_P1;HPM_P2
2021/01/12 00:01:31;;;;;;;31.60;16.98;;;-0.10;73.60;;;;;;5136290;27;20111;-88
2021/01/12 00:03:57;;;;;;;30.52;16.75;;;0.00;74.20;;;;;;5136365;27;20023;-88
2021/01/12 00:06:22;;;;;;;38.00;18.27;;;0.00;74.60;;;;;;5136477;27;20520;-88
2021/01/12 00:08:48;;;;;;;40.03;21.80;;;0.10;74.80;;;;;;5136188;27;20031;-88
2021/01/12 00:11:21;;;;;;;46.00;23.52;;;0.10;74.30;;;;;;5135976;27;20126;-88
2021/01/12 00:13:46;;;;;;;41.83;21.30;;;0.10;73.40;;;;;;5137157;27;20029;-88
2021/01/12 00:16:12;;;;;;;35.72;18.38;;;0.10;71.30;;;;;;5135974;27;20110;-88
2021/01/12 00:18:38;;;;;;;31.25;16.70;;;0.00;69.90;;;;;;5135802;27;20031;-87
2021/01/12 00:21:03;;;;;;;32.70;16.92;;;0.10;71.80;;;;;;5136085;27;20019;-88
2021/01/12 00:23:29;;;;;;;37.47;19.00;;;0.10;72.30;;;;;;5135886;27;20034;-88
2021/01/12 00:25:55;;;;;;;41.63;20.88;;;0.00;72.80;;;;;;5135989;27;20064;-88
2021/01/12 00:28:20;;;;;;;40.22;19.05;;;0.10;73.10;;;;;;5170588;27;20030;-88
2021/01/12 00:30:46;;;;;;;36.08;19.77;;;0.10;72.90;;;;;;5170376;27;20430;-88
2021/01/12 00:33:12;;;;;;;35.63;19.00;;;0.10;72.30;;;;;;5170292;27;20023;-88
2021/01/12 00:35:37;;;;;;;37.53;20.20;;;0.10;72.60;;;;;;5170238;27;20023;-88
2021/01/12 00:38:03;;;;;;;25.60;14.20;;;0.10;72.60;;;;;;5136759;27;20015;-88
2021/01/12 00:40:29;;;;;;;22.88;13.05;;;0.10;70.00;;;;;;5170003;27;20027;-88
2021/01/12 00:42:54;;;;;;;38.88;18.23;;;0.10;71.10;;;;;;5170202;27;20072;-88
2021/01/12 00:45:20;;;;;;;56.63;25.83;;;0.10;72.00;;;;;;5136703;27;20116;-88
2021/01/12 00:47:46;;;;;;;61.85;27.65;;;0.10;70.70;;;;;;5170275;27;20110;-88
2021/01/12 00:50:12;;;;;;;58.08;26.23;;;0.00;69.60;;;;;;5169966;27;20027;-88
2021/01/12 00:52:37;;;;;;;49.30;23.70;;;0.00;70.20;;;;;;5170025;27;20034;-88
2021/01/12 00:55:03;;;;;;;49.92;24.20;;;0.00;71.40;;;;;;5169241;27;20039;-88
2021/01/12 00:57:29;;;;;;;49.88;23.40;;;0.00;71.40;;;;;;5135194;27;20044;-88
2021/01/12 00:59:55;;;;;;;41.47;20.77;;;0.00;71.70;;;;;;5169687;27;20407;-88
2021/01/12 01:02:20;;;;;;;37.85;19.55;;;0.00;71.80;;;;;;5169698;27;20064;-88
2021/01/12 01:04:46;;;;;;;39.35;19.77;;;0.10;71.60;;;;;;5136453;27;20092;-88
2021/01/12 01:07:12;;;;;;;38.33;20.02;;;0.00;70.70;;;;;;5149067;27;20023;-88
2021/01/12 01:09:37;;;;;;;34.50;18.17;;;0.00;71.10;;;;;;5119461;28;20039;-89
2021/01/12 01:12:03;;;;;;;44.53;21.33;;;0.00;71.70;;;;;;5114265;28;20505;-88
2021/01/12 01:14:29;;;;;;;33.50;17.55;;;-0.10;70.70;;;;;;5114338;28;20038;-88
2021/01/12 01:16:55;;;;;;;36.03;17.20;;;-0.10;70.50;;;;;;5114361;28;20023;-88
2021/01/12 01:19:20;;;;;;;46.60;20.27;;;-0.10;70.50;;;;;;5114475;28;20034;-88
2021/01/12 01:21:49;;;;;;;43.92;19.05;;;-0.10;70.40;;;;;;5114242;28;20070;-88
2021/01/12 01:24:15;;;;;;;48.45;20.23;;;-0.10;70.90;;;;;;5114295;28;20024;-88
2021/01/12 01:26:41;;;;;;;39.72;18.33;;;-0.10;71.40;;;;;;5114482;28;20019;-88
2021/01/12 01:29:06;;;;;;;37.72;18.63;;;-0.10;71.80;;;;;;5114208;28;20054;-88
2021/01/12 01:31:39;;;;;;;35.45;16.35;;;0.00;72.00;;;;;;5114489;28;20031;-88
2021/01/12 01:34:05;;;;;;;36.28;16.80;;;0.00;72.00;;;;;;5114163;28;20111;-88
2021/01/12 01:36:30;;;;;;;31.55;15.65;;;0.00;71.70;;;;;;5114139;28;20055;-88
2021/01/12 01:38:56;;;;;;;28.50;13.85;;;0.10;71.90;;;;;;5114044;28;20024;-88
2021/01/12 01:41:22;;;;;;;23.42;12.30;;;0.10;72.00;;;;;;5113967;28;20027;-88
2021/01/12 01:43:48;;;;;;;23.70;12.95;;;0.10;71.80;;;;;;5113939;28;20110;-88
2021/01/12 01:46:14;;;;;;;32.33;15.45;;;0.10;71.80;;;;;;5114029;28;20012;-88
2021/01/12 01:48:41;;;;;;;28.45;13.63;;;0.10;70.70;;;;;;5113976;28;20059;-88
2021/01/12 01:51:07;;;;;;;22.30;12.55;;;0.00;70.40;;;;;;5113757;28;20027;-88
2021/01/12 01:53:34;;;;;;;22.55;12.25;;;0.00;70.80;;;;;;5113990;28;20487;-88
2021/01/12 01:56:05;;;;;;;22.92;11.10;;;0.00;70.90;;;;;;5114333;28;20034;-88
2021/01/12 01:58:32;;;;;;;18.63;10.32;;;0.00;71.50;;;;;;5113863;28;20028;-88
2021/01/12 02:00:58;;;;;;;17.27;9.60;;;0.00;71.20;;;;;;5113833;28;20423;-88
2021/01/12 02:03:30;;;;;;;20.65;10.98;;;0.00;71.30;;;;;;5113735;28;20020;-88
2021/01/12 02:06:03;;;;;;;21.08;11.07;;;0.00;70.40;;;;;;5113922;28;20072;-88
2021/01/12 02:08:44;;;;;;;19.85;10.77;;;0.00;70.60;;;;;;5117853;28;20358;-88
2021/01/12 02:11:11;;;;;;;22.00;11.32;;;0.00;70.50;;;;;;5118078;28;20052;-88
2021/01/12 02:13:40;;;;;;;22.80;11.20;;;0.00;70.90;;;;;;5152123;27;20019;-88
2021/01/12 02:16:06;;;;;;;26.85;14.35;;;0.00;70.70;;;;;;5117947;28;20030;-88
2021/01/12 02:18:34;;;;;;;25.05;14.60;;;-0.10;69.70;;;;;;5117720;28;20020;-88
2021/01/12 02:21:02;;;;;;;27.75;15.35;;;-0.10;70.40;;;;;;5117752;28;20023;-88
2021/01/12 02:23:34;;;;;;;32.45;16.73;;;-0.10;70.10;;;;;;5117696;28;20016;-89
2021/01/12 02:26:01;;;;;;;28.25;15.07;;;-0.10;70.50;;;;;;5118693;27;20024;-88
2021/01/12 02:28:27;;;;;;;27.02;14.75;;;-0.10;70.40;;;;;;5117816;28;20019;-88
2021/01/12 02:30:53;;;;;;;27.70;14.45;;;-0.10;71.20;;;;;;5117755;28;20020;-88
2021/01/12 02:33:19;;;;;;;27.98;15.10;;;-0.10;70.90;;;;;;5117529;28;20026;-88
2021/01/12 02:35:47;;;;;;;26.15;14.68;;;-0.10;71.20;;;;;;5117549;28;20076;-88
2021/01/12 02:38:13;;;;;;;33.97;15.27;;;-0.10;71.60;;;;;;5117459;28;20030;-88
2021/01/12 02:40:39;;;;;;;33.50;16.38;;;0.00;71.40;;;;;;5117525;28;20031;-88
2021/01/12 02:43:05;;;;;;;29.58;14.75;;;-0.10;70.50;;;;;;5117473;28;20507;-88
2021/01/12 02:45:31;;;;;;;32.67;17.45;;;-0.10;71.30;;;;;;5117293;28;20030;-88
2021/01/12 02:47:58;;;;;;;39.83;20.60;;;0.00;71.50;;;;;;5117367;28;20047;-88
2021/01/12 02:50:24;;;;;;;33.95;17.98;;;-0.10;70.90;;;;;;5117218;28;20054;-88
2021/01/12 02:52:50;;;;;;;30.63;17.52;;;-0.10;71.30;;;;;;5117083;28;20089;-88
2021/01/12 02:55:16;;;;;;;27.90;15.82;;;0.00;71.70;;;;;;5120518;28;20027;-88
2021/01/12 02:57:42;;;;;;;28.92;15.70;;;0.00;71.80;;;;;;5117924;28;20070;-88
2021/01/12 03:00:10;;;;;;;23.75;12.52;;;0.00;71.70;;;;;;5116760;28;20039;-88
2021/01/12 03:02:36;;;;;;;20.55;11.20;;;0.00;71.70;;;;;;5117052;28;20024;-88
2021/01/12 03:05:07;;;;;;;21.10;11.55;;;0.00;71.40;;;;;;5116865;28;20039;-88
2021/01/12 03:07:33;;;;;;;;;;;0.10;71.40;;;;;;5117243;28;20023;-88
2021/01/12 03:09:59;;;;;;;20.00;11.00;;;0.00;70.80;;;;;;5118358;28;19908;-88
2021/01/12 03:12:25;;;;;;;23.30;12.18;;;0.00;71.20;;;;;;5116938;28;20031;-88
2021/01/12 03:14:51;;;;;;;21.85;11.00;;;0.10;71.40;;;;;;5116699;28;20024;-88
2021/01/12 03:17:18;;;;;;;24.10;12.25;;;0.00;71.50;;;;;;5116672;28;20027;-88
2021/01/12 03:19:44;;;;;;;20.63;12.18;;;0.10;71.40;;;;;;5115379;28;20389;-88
2021/01/12 03:22:10;;;;;;;21.55;11.70;;;0.10;71.30;;;;;;5116602;28;20019;-88
2021/01/12 03:24:36;;;;;;;21.45;12.52;;;0.00;71.10;;;;;;5116878;28;20034;-87
2021/01/12 03:27:03;;;;;;;22.35;12.25;;;0.10;71.70;;;;;;5116474;28;20114;-88
2021/01/12 03:29:29;;;;;;;22.30;11.68;;;0.00;71.60;;;;;;5116969;28;20047;-88
2021/01/12 03:31:54;;;;;;;21.95;11.90;;;0.00;71.80;;;;;;5116348;28;20028;-88
2021/01/12 03:34:20;;;;;;;23.98;12.93;;;0.00;71.80;;;;;;5116335;28;20023;-88
2021/01/12 03:36:46;;;;;;;25.27;13.80;;;0.00;71.90;;;;;;5116435;28;20032;-88
2021/01/12 03:39:12;;;;;;;23.75;13.35;;;0.00;71.90;;;;;;5116167;28;20491;-88
2021/01/12 03:41:38;;;;;;;27.10;12.52;;;0.00;71.90;;;;;;5116181;28;20051;-88
2021/01/12 03:44:04;;;;;;;24.98;12.82;;;0.00;72.00;;;;;;5116284;28;20024;-88
2021/01/12 03:46:30;;;;;;;22.67;11.98;;;0.00;71.80;;;;;;5129844;27;20480;-88
2021/01/12 03:48:56;;;;;;;29.92;14.27;;;0.00;71.70;;;;;;5136740;27;20047;-88
2021/01/12 03:51:24;;;;;;;29.30;14.20;;;0.00;71.50;;;;;;5171640;27;20059;-88
2021/01/12 03:53:50;;;;;;;31.42;14.23;;;0.00;71.60;;;;;;5136412;27;20494;-88
2021/01/12 03:56:15;;;;;;;28.63;13.95;;;0.00;71.60;;;;;;5171139;27;20057;-88
2021/01/12 03:58:41;;;;;;;35.80;15.13;;;0.00;72.00;;;;;;5170878;27;20019;-88
2021/01/12 04:01:08;;;;;;;39.70;15.68;;;-0.10;71.80;;;;;;5171129;27;20019;-88
2021/01/12 04:03:33;;;;;;;32.67;14.55;;;-0.10;72.20;;;;;;5136125;27;20033;-88
2021/01/12 04:06:09;;;;;;;36.33;15.75;;;-0.10;71.30;;;;;;5170956;27;20027;-88
2021/01/12 04:08:35;;;;;;;42.83;19.70;;;-0.10;71.50;;;;;;5136354;27;20103;-88
2021/01/12 04:11:01;;;;;;;144.77;60.00;;;-0.10;71.30;;;;;;5136055;27;20430;-88
2021/01/12 04:13:27;;;;;;;92.13;40.30;;;-0.20;71.60;;;;;;5117896;27;20465;-88
2021/01/12 04:15:52;;;;;;;66.55;30.70;;;-0.20;72.00;;;;;;5115677;28;20031;-88
2021/01/12 04:18:18;;;;;;;62.38;25.52;;;-0.20;72.10;;;;;;5115156;28;20070;-88
2021/01/12 04:20:44;;;;;;;55.05;24.15;;;-0.20;72.70;;;;;;5115027;28;20037;-87
2021/01/12 04:23:09;;;;;;;46.80;21.33;;;-0.20;72.70;;;;;;5115385;28;20028;-88
2021/01/12 04:25:38;;;;;;;49.72;24.65;;;-0.20;72.80;;;;;;5115642;28;20030;-88
2021/01/12 04:28:05;;;;;;;66.25;35.00;;;-0.20;72.80;;;;;;5115173;28;20030;-88
2021/01/12 04:30:31;;;;;;;56.97;31.55;;;-0.20;72.40;;;;;;5115438;28;20038;-89
2021/01/12 04:32:56;;;;;;;56.63;28.60;;;-0.20;72.20;;;;;;5135468;27;20024;-89
2021/01/12 04:35:22;;;;;;;48.67;22.25;;;-0.20;72.40;;;;;;5170726;27;20038;-89
2021/01/12 04:37:48;;;;;;;49.95;25.00;;;-0.20;72.40;;;;;;5170073;27;20033;-89
2021/01/12 04:40:14;;;;;;;55.05;26.42;;;-0.10;72.40;;;;;;5171634;27;20366;-89
2021/01/12 04:42:42;;;;;;;45.97;23.02;;;-0.10;72.30;;;;;;5175738;27;20080;-89
2021/01/12 04:45:08;;;;;;;47.90;22.83;;;-0.20;72.00;;;;;;5170078;27;20091;-88
2021/01/12 04:47:34;;;;;;;57.17;27.88;;;-0.20;72.40;;;;;;5135205;27;20043;-89
2021/01/12 04:50:04;;;;;;;51.80;24.90;;;-0.20;72.60;;;;;;5135494;27;20135;-88
2021/01/12 04:52:30;;;;;;;48.85;23.45;;;-0.30;72.20;;;;;;5135762;27;20035;-89
2021/01/12 04:55:01;;;;;;;33.33;17.45;;;-0.30;71.50;;;;;;5135419;27;20037;-88
2021/01/12 04:57:28;;;;;;;30.70;16.02;;;-0.30;71.00;;;;;;5135194;27;20031;-87
2021/01/12 04:59:53;;;;;;;27.23;14.95;;;-0.30;71.00;;;;;;5135068;27;20465;-87
2021/01/12 05:02:19;;;;;;;25.02;13.65;;;-0.30;71.60;;;;;;5135178;27;20027;-87
2021/01/12 05:04:45;;;;;;;41.40;19.90;;;-0.20;71.30;;;;;;5134431;27;20537;-86
2021/01/12 05:07:10;;;;;;;22.88;11.27;;;-0.30;68.90;;;;;;5134736;27;20065;-86
2021/01/12 05:09:39;;;;;;;28.83;13.70;;;-0.30;69.00;;;;;;5134234;27;20023;-86
2021/01/12 05:12:06;;;;;;;27.80;13.35;;;-0.30;68.00;;;;;;5134881;27;20393;-87
2021/01/12 05:14:37;;;;;;;23.58;12.77;;;-0.30;69.20;;;;;;5134885;27;20168;-86
2021/01/12 05:17:03;;;;;;;;;;;-0.30;69.60;;;;;;5136467;27;20553;-86
2021/01/12 05:19:30;;;;;;;33.15;16.70;;;-0.20;68.60;;;;;;5134955;27;19918;-89
2021/01/12 05:22:05;;;;;;;29.73;14.82;;;-0.30;69.40;;;;;;5135022;27;20025;-90
2021/01/12 05:24:42;;;;;;;31.45;15.55;;;-0.30;68.90;;;;;;5135003;27;20062;-91
2021/01/12 05:27:11;;;;;;;19.63;11.23;;;-0.30;69.20;;;;;;5134974;27;20019;-90
2021/01/12 05:29:39;;;;;;;19.67;11.23;;;-0.30;69.20;;;;;;5136001;27;20058;-90
2021/01/12 05:32:09;;;;;;;20.50;9.57;;;-0.20;68.80;;;;;;5134901;27;20030;-89
2021/01/12 05:34:38;;;;;;;19.50;8.73;;;-0.30;68.10;;;;;;5135024;27;20072;-91
2021/01/12 05:37:05;;;;;;;24.30;12.52;;;-0.30;68.00;;;;;;5135088;27;20023;-91
2021/01/12 05:39:41;;;;;;;20.42;10.57;;;-0.30;67.10;;;;;;5134536;27;20023;-92
2021/01/12 05:42:08;;;;;;;35.25;14.80;;;-0.30;68.40;;;;;;5133927;27;20072;-92
2021/01/12 05:44:37;;;;;;;49.92;21.27;;;-0.30;67.40;;;;;;5119870;27;20020;-92
2021/01/12 05:47:03;;;;;;;67.80;26.42;;;-0.30;67.00;;;;;;5113519;28;20057;-91
2021/01/12 05:49:30;;;;;;;49.05;21.40;;;-0.40;66.90;;;;;;5114176;28;20035;-89
2021/01/12 05:51:56;;;;;;;27.20;12.63;;;-0.40;66.60;;;;;;5114295;28;20110;-89
2021/01/12 05:54:30;;;;;;;22.85;11.88;;;-0.40;67.70;;;;;;5113687;28;20541;-89
2021/01/12 05:57:03;;;;;;;25.27;13.10;;;-0.40;67.10;;;;;;5113667;28;20020;-88
2021/01/12 05:59:32;;;;;;;21.48;11.57;;;-0.50;66.70;;;;;;5113517;28;20027;-86
2021/01/12 06:01:59;;;;;;;22.02;12.38;;;-0.50;66.70;;;;;;5113272;28;20023;-89
2021/01/12 06:04:25;;;;;;;26.10;13.65;;;-0.50;67.20;;;;;;5113504;28;20381;-89
2021/01/12 06:06:54;;;;;;;21.45;10.50;;;-0.50;67.10;;;;;;5114044;28;20024;-92
2021/01/12 06:09:20;;;;;;;19.27;10.68;;;-0.50;67.40;;;;;;5133757;28;20034;-89
2021/01/12 06:11:49;;;;;;;23.85;10.98;;;-0.50;66.60;;;;;;5134801;28;20023;-92
2021/01/12 06:14:17;;;;;;;23.95;11.23;;;-0.50;67.40;;;;;;5134529;28;20024;-93
2021/01/12 06:16:46;;;;;;;23.02;10.90;;;-0.40;67.80;;;;;;5134114;28;20058;-93
2021/01/12 06:19:15;;;;;;;20.90;11.25;;;-0.40;67.70;;;;;;5134187;28;20055;-93
2021/01/12 06:21:56;;;;;;;23.90;12.63;;;-0.30;67.80;;;;;;5134331;28;20404;-93
2021/01/12 06:24:34;;;;;;;30.38;14.40;;;-0.40;67.40;;;;;;5134532;28;20472;-93
2021/01/12 06:27:00;;;;;;;20.02;10.85;;;-0.40;66.20;;;;;;5142470;28;20362;-92
2021/01/12 06:29:30;;;;;;;24.88;12.00;;;-0.40;67.20;;;;;;5143497;28;20030;-91
2021/01/12 06:31:57;;;;;;;28.75;14.82;;;-0.30;67.20;;;;;;5134972;28;20019;-94
2021/01/12 06:34:24;;;;;;;38.90;17.45;;;-0.30;66.80;;;;;;5134250;28;20031;-91
2021/01/12 06:36:51;;;;;;;39.13;18.50;;;-0.30;66.70;;;;;;5133818;28;20037;-91
2021/01/12 06:39:24;;;;;;;41.00;17.83;;;-0.20;67.00;;;;;;5133853;28;20052;-88
2021/01/12 06:41:51;;;;;;;45.65;18.85;;;-0.20;66.20;;;;;;5134077;28;20019;-90
2021/01/12 06:44:24;;;;;;;39.50;17.65;;;-0.30;65.30;;;;;;5168739;27;20023;-91
2021/01/12 06:46:54;;;;;;;30.50;13.93;;;-0.30;65.40;;;;;;5133857;28;20068;-93
2021/01/12 06:49:23;;;;;;;32.65;14.02;;;-0.30;66.30;;;;;;5134071;28;20047;-94
2021/01/12 06:52:09;;;;;;;33.35;15.15;;;-0.30;66.30;;;;;;5133941;28;20023;-92
2021/01/12 06:54:47;;;;;;;30.90;15.85;;;-0.30;65.60;;;;;;5137931;27;20526;-92
2021/01/12 06:57:14;;;;;;;36.20;17.33;;;-0.30;66.30;;;;;;5138076;27;20062;-92
2021/01/12 07:00:00;;;;;;;30.95;16.33;;;-0.30;66.80;;;;;;5143023;27;20020;-93
2021/01/12 07:02:30;;;;;;;27.90;14.80;;;-0.30;66.80;;;;;;5136978;27;20032;-92
2021/01/12 07:05:16;;;;;;;37.85;18.23;;;-0.20;66.80;;;;;;5137613;27;20019;-93
2021/01/12 07:07:43;;;;;;;33.22;17.20;;;-0.30;65.50;;;;;;5137404;27;20027;-92
2021/01/12 07:10:11;;;;;;;38.00;18.13;;;-0.30;66.20;;;;;;5137564;27;20117;-89
2021/01/12 07:12:38;;;;;;;34.63;15.63;;;-0.30;66.40;;;;;;5138758;27;20035;-89
2021/01/12 07:15:08;;;;;;;37.75;18.60;;;-0.30;67.20;;;;;;5137237;27;20023;-89
2021/01/12 07:17:44;;;;;;;34.72;17.45;;;-0.20;67.20;;;;;;5137519;27;20034;-89
2021/01/12 07:20:18;;;;;;;32.03;16.52;;;-0.20;66.30;;;;;;5137089;27;20036;-90
2021/01/12 07:23:08;;;;;;;31.23;15.57;;;-0.30;66.80;;;;;;5137553;27;20023;-89
2021/01/12 07:25:42;;;;;;;35.08;15.38;;;-0.30;67.50;;;;;;5137288;27;20051;-88
2021/01/12 07:28:14;;;;;;;30.30;15.60;;;-0.30;67.50;;;;;;5137030;27;20023;-90
2021/01/12 07:30:41;;;;;;;33.38;15.75;;;-0.20;67.40;;;;;;5136822;27;20545;-88
2021/01/12 07:33:08;;;;;;;27.38;14.07;;;-0.20;67.70;;;;;;5136917;27;20025;-89
2021/01/12 07:35:36;;;;;;;30.08;14.82;;;-0.20;67.50;;;;;;5136782;27;20045;-90
2021/01/12 07:38:03;;;;;;;28.80;13.63;;;-0.20;67.40;;;;;;5137081;27;20384;-90
2021/01/12 07:40:29;;;;;;;26.83;13.98;;;-0.20;67.70;;;;;;5136676;27;20026;-91
2021/01/12 07:42:57;;;;;;;29.13;14.32;;;-0.20;67.40;;;;;;5136426;27;20023;-87
2021/01/12 07:45:25;;;;;;;31.95;16.60;;;-0.20;67.40;;;;;;5136464;27;20019;-86
2021/01/12 07:47:58;;;;;;;33.45;16.35;;;-0.20;67.20;;;;;;5136220;27;20056;-87
2021/01/12 07:50:26;;;;;;;30.33;15.10;;;-0.20;67.30;;;;;;5136346;27;20055;-86
2021/01/12 07:52:52;;;;;;;32.90;16.95;;;-0.20;67.90;;;;;;5136388;27;20056;-87
2021/01/12 07:55:18;;;;;;;27.70;14.57;;;-0.20;67.20;;;;;;5170891;27;20034;-87
2021/01/12 07:57:46;;;;;;;24.75;12.35;;;-0.20;67.70;;;;;;5171336;27;20027;-87
2021/01/12 08:00:13;;;;;;;28.42;13.25;;;-0.20;67.50;;;;;;5136221;27;20049;-86
2021/01/12 08:02:42;;;;;;;28.65;14.50;;;-0.20;66.50;;;;;;5136253;27;20030;-87
2021/01/12 08:05:10;;;;;;;29.13;15.10;;;-0.30;66.60;;;;;;5135419;27;20461;-86
2021/01/12 08:07:36;;;;;;;28.42;14.63;;;-0.30;66.80;;;;;;5136630;27;20036;-87
2021/01/12 08:10:04;;;;;;;25.17;13.35;;;-0.20;66.90;;;;;;5136979;27;20387;-87
2021/01/12 08:12:30;;;;;;;30.23;16.42;;;-0.20;66.70;;;;;;5141024;27;20039;-89
2021/01/12 08:15:06;;;;;;;29.70;15.02;;;-0.20;66.60;;;;;;5171059;27;20091;-87
2021/01/12 08:17:32;;;;;;;28.27;14.73;;;-0.20;67.10;;;;;;5135703;27;20075;-87
2021/01/12 08:20:04;;;;;;;29.15;14.15;;;-0.10;66.90;;;;;;5135235;27;20023;-87
2021/01/12 08:22:29;;;;;;;25.73;13.50;;;-0.20;65.50;;;;;;5135390;27;20019;-87
2021/01/12 08:25:04;;;;;;;26.17;13.20;;;-0.10;66.30;;;;;;5136891;27;20090;-87
2021/01/12 08:27:30;;;;;;;27.50;15.07;;;0.00;65.50;;;;;;5135657;27;20019;-87
2021/01/12 08:30:08;;;;;;;30.67;14.38;;;0.10;63.80;;;;;;5170561;27;20023;-87
2021/01/12 08:32:36;;;;;;;21.83;12.55;;;0.20;64.70;;;;;;5135551;27;20019;-88
2021/01/12 08:35:06;;;;;;;23.35;13.10;;;0.10;63.80;;;;;;5135527;27;20023;-89
2021/01/12 08:37:37;;;;;;;28.08;13.00;;;0.20;64.90;;;;;;5135250;27;20023;-88
2021/01/12 08:40:03;;;;;;;;;;;0.40;64.20;;;;;;5135936;27;20023;-86
2021/01/12 08:42:31;;;;;;;22.48;13.13;;;0.50;63.00;;;;;;5135322;27;19991;-87
2021/01/12 08:44:57;;;;;;;21.52;12.18;;;0.50;62.50;;;;;;5136127;27;20020;-87
2021/01/12 08:47:27;;;;;;;20.85;11.85;;;0.50;63.50;;;;;;5135024;27;20042;-89
2021/01/12 08:50:07;;;;;;;21.27;11.40;;;0.50;63.00;;;;;;5135076;27;20019;-87
2021/01/12 08:52:34;;;;;;;19.52;11.73;;;0.40;62.20;;;;;;5135509;27;20062;-88
2021/01/12 08:55:00;;;;;;;22.25;13.30;;;0.30;61.50;;;;;;5135470;27;20030;-88
2021/01/12 08:57:26;;;;;;;18.75;11.02;;;0.20;62.30;;;;;;5169916;27;20019;-88
2021/01/12 08:59:52;;;;;;;19.02;10.52;;;0.20;62.50;;;;;;5169964;27;20118;-89
2021/01/12 09:02:21;;;;;;;13.98;8.98;;;0.10;62.40;;;;;;5169855;27;20019;-88
2021/01/12 09:04:59;;;;;;;18.15;10.05;;;0.10;62.70;;;;;;5136338;27;20054;-89
2021/01/12 09:07:25;;;;;;;22.15;13.35;;;0.10;63.50;;;;;;5135003;27;20026;-91
2021/01/12 09:09:53;;;;;;;20.02;11.75;;;0.00;62.20;;;;;;5169916;27;20384;-88
2021/01/12 09:12:19;;;;;;;22.70;13.65;;;0.00;63.50;;;;;;5135022;27;20034;-88
2021/01/12 09:14:49;;;;;;;23.00;12.93;;;0.10;62.70;;;;;;5169635;27;20380;-88
2021/01/12 09:17:21;;;;;;;19.50;10.50;;;0.10;63.80;;;;;;5134176;27;20023;-89
2021/01/12 09:19:55;;;;;;;16.23;10.50;;;0.20;63.20;;;;;;5169800;27;20279;-94
2021/01/12 09:22:21;;;;;;;19.83;10.57;;;0.20;63.60;;;;;;5135071;27;20026;-88
2021/01/12 09:24:52;;;;;;;15.48;9.77;;;0.20;63.40;;;;;;5135949;27;20015;-83
2021/01/12 09:27:25;;;;;;;17.92;10.05;;;0.30;63.90;;;;;;5135283;27;20071;-87
2021/01/12 09:29:51;;;;;;;18.00;10.43;;;0.30;63.20;;;;;;5134450;27;20038;-86
2021/01/12 09:32:46;;;;;;;17.92;9.73;;;0.30;62.60;;;;;;5134361;27;20461;-85
2021/01/12 09:35:19;;;;;;;21.10;10.05;;;0.30;63.70;;;;;;5117012;27;20070;-85
2021/01/12 09:38:02;;;;;;;20.65;10.40;;;0.40;63.10;;;;;;5135430;27;20095;-85
2021/01/12 09:40:28;;;;;;;19.83;10.88;;;0.40;62.70;;;;;;5134206;27;20023;-87
2021/01/12 09:42:54;;;;;;;16.05;9.18;;;0.40;62.40;;;;;;5135075;27;20020;-84
2021/01/12 09:45:19;;;;;;;21.40;11.10;;;0.40;63.20;;;;;;5135332;27;20034;-85
2021/01/12 09:47:46;;;;;;;16.83;9.38;;;0.50;63.40;;;;;;5168511;27;20047;-85
2021/01/12 09:50:12;;;;;;;20.38;11.55;;;0.50;63.20;;;;;;5135231;27;20023;-85
2021/01/12 09:52:38;;;;;;;18.60;9.70;;;0.50;62.70;;;;;;5134036;27;20034;-85
2021/01/12 09:55:05;;;;;;;18.25;9.90;;;0.60;63.20;;;;;;5168595;27;20019;-88
2021/01/12 09:57:34;;;;;;;18.30;9.90;;;0.60;62.10;;;;;;5133752;27;20019;-86
2021/01/12 10:00:00;;;;;;;18.02;9.65;;;0.60;63.10;;;;;;5133920;28;20067;-85
2021/01/12 10:02:26;;;;;;;17.88;10.80;;;0.60;63.20;;;;;;5134053;28;20019;-83
2021/01/12 10:04:51;;;;;;;18.65;9.85;;;0.70;63.00;;;;;;5168064;27;20102;-85
2021/01/12 10:07:17;;;;;;;19.83;9.88;;;0.70;63.00;;;;;;5168771;27;20023;-88
2021/01/12 10:09:43;;;;;;;23.27;10.65;;;0.70;62.90;;;;;;5168587;27;20410;-83
2021/01/12 10:12:09;;;;;;;18.50;9.48;;;0.70;61.70;;;;;;5134483;27;20504;-83
2021/01/12 10:14:34;;;;;;;16.60;9.02;;;0.70;62.70;;;;;;5133467;28;20419;-83
2021/01/12 10:17:03;;;;;;;18.65;10.18;;;0.70;62.00;;;;;;5133580;28;20023;-84
2021/01/12 10:19:28;;;;;;;21.33;10.27;;;0.70;61.40;;;;;;5133358;28;20023;-83
2021/01/12 10:21:54;;;;;;;14.65;8.60;;;0.70;61.80;;;;;;5167938;27;20381;-83
2021/01/12 10:24:22;;;;;;;11.75;7.18;;;0.70;60.90;;;;;;5167956;27;20016;-83
2021/01/12 10:26:53;;;;;;;12.52;8.57;;;0.60;60.80;;;;;;5133498;28;20027;-83
2021/01/12 10:29:18;;;;;;;17.65;9.85;;;0.60;60.10;;;;;;5137185;27;20144;-83
2021/01/12 10:31:45;;;;;;;19.33;10.23;;;0.60;60.20;;;;;;5172071;27;20047;-85
2021/01/12 10:34:10;;;;;;;18.40;9.93;;;0.60;60.80;;;;;;5137535;27;20027;-84
2021/01/12 10:36:36;;;;;;;18.70;11.00;;;0.70;60.90;;;;;;5138710;27;20122;-83
2021/01/12 10:39:02;;;;;;;20.23;11.52;;;0.70;60.80;;;;;;5136951;27;20027;-84
2021/01/12 10:41:28;;;;;;;17.15;9.85;;;0.70;59.80;;;;;;5137279;27;20068;-85
2021/01/12 10:43:55;;;;;;;18.13;9.85;;;0.80;62.00;;;;;;5171746;27;20027;-82
2021/01/12 10:46:21;;;;;;;16.25;8.15;;;0.90;61.80;;;;;;5172065;27;20057;-86
2021/01/12 10:48:47;;;;;;;17.45;10.30;;;0.90;61.10;;;;;;5171444;27;20047;-83
2021/01/12 10:51:17;;;;;;;15.55;8.63;;;0.80;60.20;;;;;;5171954;27;20023;-83
2021/01/12 10:53:43;;;;;;;22.35;11.02;;;0.90;61.80;;;;;;5137107;27;20020;-84
2021/01/12 10:56:14;;;;;;;19.45;11.30;;;0.90;61.40;;;;;;5171605;27;20030;-84
2021/01/12 10:58:40;;;;;;;14.65;8.45;;;0.90;61.80;;;;;;5136874;27;20058;-84
2021/01/12 11:01:06;;;;;;;17.55;9.90;;;0.80;61.10;;;;;;5171367;27;20123;-84
2021/01/12 11:03:32;;;;;;;16.75;9.73;;;0.80;61.80;;;;;;5136873;27;20366;-84
2021/01/12 11:05:57;;;;;;;14.73;9.68;;;0.80;62.10;;;;;;5171460;27;20026;-84
2021/01/12 11:08:25;;;;;;;16.55;8.77;;;0.80;61.80;;;;;;5171256;27;20023;-84
2021/01/12 11:10:51;;;;;;;20.25;10.73;;;0.70;61.60;;;;;;5136681;27;20023;-84
2021/01/12 11:13:17;;;;;;;14.95;7.63;;;0.80;62.20;;;;;;5136741;27;20392;-85
2021/01/12 11:15:44;;;;;;;11.10;6.78;;;0.80;61.90;;;;;;5136638;27;20041;-85
2021/01/12 11:18:11;;;;;;;13.55;8.18;;;0.80;62.40;;;;;;5171420;27;20445;-84
2021/01/12 11:20:37;;;;;;;10.98;6.10;;;0.80;61.90;;;;;;5137764;27;20023;-83
2021/01/12 11:23:03;;;;;;;13.38;7.22;;;0.80;62.70;;;;;;5139451;27;20047;-84
2021/01/12 11:25:30;;;;;;;10.43;6.25;;;0.90;62.30;;;;;;5140582;27;20115;-83
2021/01/12 11:27:56;;;;;;;10.95;6.97;;;0.90;62.70;;;;;;5139545;27;20075;-82
2021/01/12 11:30:22;;;;;;;10.43;7.18;;;0.80;62.40;;;;;;5138129;27;20474;-86
2021/01/12 11:32:48;;;;;;;17.55;11.32;;;0.80;62.20;;;;;;5137307;27;20024;-85
2021/01/12 11:35:15;;;;;;;13.77;7.72;;;0.80;62.70;;;;;;5171548;27;20049;-86
2021/01/12 11:37:43;;;;;;;13.45;8.07;;;0.70;62.90;;;;;;5179037;27;20461;-84
2021/01/12 11:40:10;;;;;;;15.18;8.57;;;0.70;63.30;;;;;;5142799;27;20031;-87
2021/01/12 11:42:36;;;;;;;10.23;6.40;;;0.70;63.10;;;;;;5136811;27;20027;-85
2021/01/12 11:45:02;;;;;;;10.32;5.95;;;0.60;63.40;;;;;;5170770;27;20030;-86
2021/01/12 11:47:28;;;;;;;10.02;6.95;;;0.60;63.70;;;;;;5136209;27;20043;-86
2021/01/12 11:49:54;;;;;;;9.18;6.32;;;0.60;63.60;;;;;;5135698;27;20079;-84
2021/01/12 11:52:20;;;;;;;9.88;6.10;;;0.70;63.90;;;;;;5137310;27;20406;-86
2021/01/12 11:54:46;;;;;;;8.38;5.80;;;0.70;63.70;;;;;;5170746;27;20061;-89
2021/01/12 11:57:13;;;;;;;8.25;5.85;;;0.70;63.90;;;;;;5170988;27;20458;-87
2021/01/12 11:59:39;;;;;;;7.55;5.47;;;0.70;64.40;;;;;;5170599;27;20110;-87
2021/01/12 12:02:04;;;;;;;12.70;6.43;;;0.70;64.50;;;;;;5136097;27;20023;-87
2021/01/12 12:04:30;;;;;;;6.47;4.88;;;0.70;64.50;;;;;;5135981;27;20027;-87
2021/01/12 12:07:02;;;;;;;7.22;5.13;;;0.70;65.50;;;;;;5170788;27;20019;-86
2021/01/12 12:09:29;;;;;;;7.60;4.97;;;0.60;65.10;;;;;;5135516;27;20046;-90
2021/01/12 12:11:56;;;;;;;8.85;5.38;;;0.50;65.60;;;;;;5135716;27;20027;-86
2021/01/12 12:14:22;;;;;;;6.45;4.85;;;0.50;65.80;;;;;;5135851;27;20030;-86
2021/01/12 12:16:48;;;;;;;12.23;6.20;;;0.50;65.70;;;;;;5170257;27;20027;-85
2021/01/12 12:19:18;;;;;;;9.35;4.82;;;0.50;65.80;;;;;;5169916;27;20033;-86
2021/01/12 12:21:46;;;;;;;18.45;8.30;;;0.40;65.90;;;;;;5136896;27;20027;-89
2021/01/12 12:24:14;;;;;;;10.52;6.03;;;0.40;66.40;;;;;;5136946;27;20053;-92
2021/01/12 12:26:40;;;;;;;12.00;5.80;;;0.40;66.10;;;;;;5136000;27;20026;-92
2021/01/12 12:29:06;;;;;;;13.65;6.55;;;0.40;66.30;;;;;;5136330;27;20023;-92
2021/01/12 12:31:32;;;;;;;11.70;5.97;;;0.40;66.40;;;;;;5170569;27;20491;-90
2021/01/12 12:33:58;;;;;;;14.43;8.55;;;0.50;66.50;;;;;;5170608;27;20031;-93
2021/01/12 12:36:24;;;;;;;13.18;7.43;;;0.60;65.90;;;;;;5170531;27;20446;-93
2021/01/12 12:38:49;;;;;;;11.32;7.32;;;0.60;65.70;;;;;;5136751;27;20038;-93